Time;durP1;ratioP1;P1;durP2;ratioP2;P2;SDS_P1;SDS_P2;PMS_P1;PMS_P2;Temp;Humidity;BMP_temperature;BMP_pressure;BME280_temperature;BME280_humidity;BME280_pressure;Samples;Min_cycle;Max_cycle;Signal;HPM_P1;HPM_P2
2023/07/11 00:01:44;;;;;;;;;;;21.30;89.50;;;;;;6190930;23;19900;-84
2023/07/11 00:04:09;;;;;;;;;;;21.30;89.60;;;;;;6218487;23;19998;-86
2023/07/11 00:06:34;;;;;;;;;;;21.30;89.60;;;;;;6191507;23;19931;-85
2023/07/11 00:09:00;;;;;;;;;;;21.30;89.60;;;;;;6219273;23;20246;-84
2023/07/11 00:11:25;;;;;;;;;;;21.30;89.60;;;;;;6191335;23;19900;-86
2023/07/11 00:13:51;;;;;;;;;;;21.30;89.60;;;;;;6191404;23;19973;-84
2023/07/11 00:16:17;;;;;;;;;;;21.30;89.70;;;;;;6218597;23;20341;-85
2023/07/11 00:18:43;;;;;;;;;;;21.30;89.60;;;;;;6191031;23;19906;-85
2023/07/11 00:21:08;;;;;;;;;;;21.20;90.00;;;;;;6191886;23;19899;-84
2023/07/11 00:23:34;;;;;;;;;;;21.20;89.60;;;;;;6190347;23;19907;-85
2023/07/11 00:25:59;;;;;;;;;;;21.30;89.60;;;;;;6191267;23;19900;-85
2023/07/11 00:28:25;;;;;;;;;;;21.30;89.50;;;;;;6216518;23;19900;-85
2023/07/11 00:30:50;;;;;;;;;;;21.20;89.50;;;;;;6189987;23;20345;-85
2023/07/11 00:33:16;;;;;;;;;;;21.30;89.50;;;;;;6216857;23;19995;-85
2023/07/11 00:35:43;;;;;;;;;;;21.20;89.50;;;;;;6190361;23;19979;-84
2023/07/11 00:38:09;;;;;;;;;;;21.20;89.60;;;;;;6190273;23;19991;-85
2023/07/11 00:40:41;;;;;;;;;;;21.30;89.70;;;;;;6217473;23;19899;-86
2023/07/11 00:43:09;;;;;;;;;;;21.30;89.60;;;;;;6216501;23;19907;-86
2023/07/11 00:45:59;;;;;;;;;;;21.30;89.50;;;;;;6217022;23;19904;-85
2023/07/11 00:48:24;;;;;;;;;;;21.30;89.30;;;;;;6189823;23;19900;-86
2023/07/11 00:50:51;;;;;;;;;;;21.40;89.30;;;;;;6190015;23;19911;-85
2023/07/11 00:53:16;;;;;;;;;;;21.40;89.20;;;;;;6217425;23;19907;-85
2023/07/11 00:55:43;;;;;;;;;;;21.40;89.10;;;;;;6218236;23;19950;-84
2023/07/11 00:58:09;;;;;;;;;;;21.40;89.00;;;;;;6218214;23;19943;-85
2023/07/11 01:00:34;;;;;;;;;;;21.40;89.00;;;;;;6217948;23;19947;-85
2023/07/11 01:03:00;;;;;;;;;;;21.40;89.00;;;;;;6217430;23;19982;-84
2023/07/11 01:05:25;;;;;;;;;;;21.40;89.00;;;;;;6218074;23;19900;-84
2023/07/11 01:07:51;;;;;;;;;;;21.40;89.40;;;;;;6191701;23;19900;-85
2023/07/11 01:10:16;;;;;;;;;;;21.40;88.90;;;;;;6191213;23;19900;-85
2023/07/11 01:12:48;;;;;;;;;;;21.40;89.00;;;;;;6190970;23;19900;-87
2023/07/11 01:15:14;;;;;;;;;;;21.40;89.00;;;;;;6217380;23;20000;-85
2023/07/11 01:17:39;;;;;;;;;;;21.30;89.00;;;;;;6190772;23;19903;-85
2023/07/11 01:20:07;;;;;;;;;;;21.30;89.10;;;;;;6217242;23;19923;-85
2023/07/11 01:22:34;;;;;;;;;;;21.30;89.30;;;;;;6217026;23;19900;-85
2023/07/11 01:25:01;;;;;;;;;;;21.30;89.50;;;;;;6191356;23;19900;-84
2023/07/11 01:27:27;;;;;;;;;;;21.30;89.60;;;;;;6190797;23;19907;-85
2023/07/11 01:29:52;;;;;;;;;;;21.30;89.50;;;;;;6190784;23;19900;-85
2023/07/11 01:32:18;;;;;;;;;;;21.30;89.40;;;;;;6190084;23;20238;-85
2023/07/11 01:34:43;;;;;;;;;;;21.20;89.30;;;;;;6190569;23;19939;-86
2023/07/11 01:37:09;;;;;;;;;;;21.20;89.30;;;;;;6190320;23;19911;-85
2023/07/11 01:39:34;;;;;;;;;;;21.20;89.30;;;;;;6191966;23;19923;-87
2023/07/11 01:42:00;;;;;;;;;;;21.20;89.40;;;;;;6226802;23;19911;-86
2023/07/11 01:44:25;;;;;;;;;;;21.20;89.50;;;;;;6200669;23;19919;-87
2023/07/11 01:46:51;;;;;;;;;;;21.20;89.60;;;;;;6200440;23;19900;-89
2023/07/11 01:49:16;;;;;;;;;;;21.30;89.60;;;;;;6199083;23;19900;-86
2023/07/11 01:51:45;;;;;;;;;;;21.20;89.60;;;;;;6198874;23;19900;-90
2023/07/11 01:54:11;;;;;;;;;;;21.20;89.60;;;;;;6198379;23;19903;-85
2023/07/11 01:56:37;;;;;;;;;;;21.20;89.60;;;;;;6198977;23;20245;-86
2023/07/11 01:59:03;;;;;;;;;;;21.30;89.60;;;;;;6197659;23;19900;-86
2023/07/11 02:01:28;;;;;;;;;;;21.20;89.50;;;;;;6198945;23;19907;-86
2023/07/11 02:03:54;;;;;;;;;;;21.20;89.50;;;;;;6200834;23;19899;-86
2023/07/11 02:06:20;;;;;;;;;;;21.20;89.50;;;;;;6200295;23;19904;-86
2023/07/11 02:08:45;;;;;;;;;;;21.20;89.50;;;;;;6199322;23;19906;-87
2023/07/11 02:11:11;;;;;;;;;;;21.20;89.60;;;;;;6200022;23;20207;-88
2023/07/11 02:13:36;;;;;;;;;;;21.20;89.50;;;;;;6198791;23;19899;-86
2023/07/11 02:16:01;;;;;;;;;;;21.30;89.50;;;;;;6198286;23;19904;-86
2023/07/11 02:18:27;;;;;;;;;;;21.30;89.40;;;;;;6197076;23;20242;-86
2023/07/11 02:21:04;;;;;;;;;;;21.30;89.30;;;;;;6196900;23;20237;-85
2023/07/11 02:23:29;;;;;;;;;;;21.30;89.20;;;;;;6223330;23;19900;-85
2023/07/11 02:25:55;;;;;;;;;;;21.30;89.10;;;;;;6197178;23;20346;-85
2023/07/11 02:28:20;;;;;;;;;;;21.30;89.00;;;;;;6196887;23;19911;-85
2023/07/11 02:30:46;;;;;;;;;;;21.30;89.00;;;;;;6196207;23;19903;-85
2023/07/11 02:33:11;;;;;;;;;;;21.40;89.00;;;;;;6194800;23;19946;-85
2023/07/11 02:35:37;;;;;;;;;;;21.40;89.00;;;;;;6196335;23;19907;-85
2023/07/11 02:38:02;;;;;;;;;;;21.40;88.90;;;;;;6196175;23;19904;-85
2023/07/11 02:40:28;;;;;;;;;;;21.40;88.90;;;;;;6222407;23;19899;-84
2023/07/11 02:42:53;;;;;;;;;;;21.40;89.10;;;;;;6194491;23;19954;-85
2023/07/11 02:45:19;;;;;;;;;;;21.30;89.00;;;;;;6196143;23;19904;-84
2023/07/11 02:47:44;;;;;;;;;;;21.30;89.20;;;;;;6195611;23;19922;-85
2023/07/11 02:50:09;;;;;;;;;;;21.30;89.20;;;;;;6194702;23;19904;-85
2023/07/11 02:52:35;;;;;;;;;;;21.30;89.50;;;;;;6221002;23;19946;-85
2023/07/11 02:55:00;;;;;;;;;;;21.30;89.60;;;;;;6220732;23;19910;-85
2023/07/11 02:57:26;;;;;;;;;;;21.20;89.60;;;;;;6193469;23;19919;-84
2023/07/11 02:59:51;;;;;;;;;;;21.20;89.60;;;;;;6217389;23;19900;-84
2023/07/11 03:02:17;;;;;;;;;;;21.20;89.60;;;;;;6219190;23;19900;-84
2023/07/11 03:04:42;;;;;;;;;;;21.20;89.40;;;;;;6193754;23;19943;-84
2023/07/11 03:07:07;;;;;;;;;;;21.20;89.40;;;;;;6220240;23;19975;-84
2023/07/11 03:09:34;;;;;;;;;;;21.20;89.40;;;;;;6219790;23;19900;-84
2023/07/11 03:12:00;;;;;;;;;;;21.20;89.50;;;;;;6218833;23;19900;-84
2023/07/11 03:14:26;;;;;;;;;;;21.20;89.50;;;;;;6218393;23;19907;-84
2023/07/11 03:16:52;;;;;;;;;;;21.20;89.50;;;;;;6191275;23;20282;-84
2023/07/11 03:19:19;;;;;;;;;;;21.20;89.60;;;;;;6191448;23;19900;-84
2023/07/11 03:21:44;;;;;;;;;;;21.20;89.60;;;;;;6218015;23;19923;-84
2023/07/11 03:24:10;;;;;;;;;;;21.20;89.60;;;;;;6191761;23;20454;-84
2023/07/11 03:26:35;;;;;;;;;;;21.20;89.60;;;;;;6191216;23;19946;-84
2023/07/11 03:29:01;;;;;;;;;;;21.20;89.60;;;;;;6218294;23;19947;-84
2023/07/11 03:31:26;;;;;;;;;;;21.20;89.50;;;;;;6191843;23;20282;-83
2023/07/11 03:33:51;;;;;;;;;;;21.20;89.50;;;;;;6191199;23;19987;-84
2023/07/11 03:36:17;;;;;;;;;;;21.20;89.60;;;;;;6191174;23;20335;-84
2023/07/11 03:38:42;;;;;;;;;;;21.20;89.60;;;;;;6190967;23;19911;-84
2023/07/11 03:41:08;;;;;;;;;;;21.20;89.50;;;;;;6217733;23;19900;-84
2023/07/11 03:43:33;;;;;;;;;;;21.20;89.60;;;;;;6189814;23;19899;-85
2023/07/11 03:45:58;;;;;;;;;;;21.20;89.50;;;;;;6190325;23;19900;-84
2023/07/11 03:48:24;;;;;;;;;;;21.20;89.40;;;;;;6190858;23;20315;-84
2023/07/11 03:50:49;;;;;;;;;;;21.30;89.30;;;;;;6190624;23;19900;-85
2023/07/11 03:53:15;;;;;;;;;;;21.30;89.20;;;;;;6189865;23;19907;-84
2023/07/11 03:55:43;;;;;;;;;;;21.30;89.10;;;;;;6216851;23;20326;-84
2023/07/11 03:58:09;;;;;;;;;;;21.30;89.00;;;;;;6217076;23;19911;-84
2023/07/11 04:00:34;;;;;;;;;;;21.30;89.00;;;;;;6190313;23;19986;-84
2023/07/11 04:03:00;;;;;;;;;;;21.30;88.90;;;;;;6189872;23;19912;-84
2023/07/11 04:05:25;;;;;;;;;;;21.30;88.90;;;;;;6190038;23;19982;-84
2023/07/11 04:07:51;;;;;;;;;;;21.30;88.90;;;;;;6217525;23;19900;-84
2023/07/11 04:10:16;;;;;;;;;;;21.30;88.80;;;;;;6189374;23;19900;-84
2023/07/11 04:12:42;;;;;;;;;;;21.30;88.90;;;;;;6189594;23;20284;-84
2023/07/11 04:15:07;;;;;;;;;;;21.30;88.90;;;;;;6217007;23;19946;-84
2023/07/11 04:17:33;;;;;;;;;;;21.30;89.00;;;;;;6189729;23;19903;-84
2023/07/11 04:19:58;;;;;;;;;;;21.30;89.00;;;;;;6216491;23;19978;-84
2023/07/11 04:22:23;;;;;;;;;;;21.30;89.20;;;;;;6188921;23;19923;-84
2023/07/11 04:24:49;;;;;;;;;;;21.20;89.30;;;;;;6189089;23;20377;-84
2023/07/11 04:27:14;;;;;;;;;;;21.30;89.50;;;;;;6190340;23;19900;-84
2023/07/11 04:29:40;;;;;;;;;;;21.20;89.40;;;;;;6191432;23;19938;-84
2023/07/11 04:32:06;;;;;;;;;;;21.20;89.40;;;;;;6189821;23;19907;-82
2023/07/11 04:34:31;;;;;;;;;;;21.20;89.30;;;;;;6187171;23;19908;-83
2023/07/11 04:36:57;;;;;;;;;;;21.20;89.30;;;;;;6187202;23;20796;-82
2023/07/11 04:39:22;;;;;;;;;;;21.20;89.20;;;;;;6187059;23;19900;-83
2023/07/11 04:41:48;;;;;;;;;;;21.20;89.30;;;;;;6187805;23;20460;-81
2023/07/11 04:44:13;;;;;;;;;;;21.20;89.30;;;;;;6186606;23;19904;-81
2023/07/11 04:46:38;;;;;;;;;;;21.20;89.30;;;;;;6188414;23;19903;-82
2023/07/11 04:49:04;;;;;;;;;;;21.20;89.30;;;;;;6187518;23;19900;-82
2023/07/11 04:51:29;;;;;;;;;;;21.20;89.30;;;;;;6188187;23;19899;-82
2023/07/11 04:53:55;;;;;;;;;;;21.20;89.30;;;;;;6217651;23;19983;-82
2023/07/11 04:56:20;;;;;;;;;;;21.20;89.30;;;;;;6192617;23;19912;-82
2023/07/11 04:58:46;;;;;;;;;;;21.20;89.30;;;;;;6189473;23;19908;-82
2023/07/11 05:01:13;;;;;;;;;;;21.20;89.20;;;;;;6190163;23;19970;-82
2023/07/11 05:03:38;;;;;;;;;;;21.20;89.20;;;;;;6190405;23;19915;-82
2023/07/11 05:06:04;;;;;;;;;;;21.20;89.20;;;;;;6190523;23;19903;-82
2023/07/11 05:08:30;;;;;;;;;;;21.10;89.10;;;;;;6190375;23;19903;-82
2023/07/11 05:11:13;;;;;;;;;;;21.20;89.10;;;;;;6189511;23;19900;-81
2023/07/11 05:13:38;;;;;;;;;;;21.20;89.10;;;;;;6190283;23;20361;-81
2023/07/11 05:16:05;;;;;;;;;;;21.20;89.00;;;;;;6192773;23;19903;-80
2023/07/11 05:18:31;;;;;;;;;;;21.30;89.10;;;;;;6191544;23;19908;-83
2023/07/11 05:20:57;;;;;;;;;;;21.30;88.90;;;;;;6191765;23;19985;-83
2023/07/11 05:23:26;;;;;;;;;;;21.30;88.80;;;;;;6218168;23;19900;-84
2023/07/11 05:25:52;;;;;;;;;;;21.30;88.70;;;;;;6192006;23;19900;-82
2023/07/11 05:28:17;;;;;;;;;;;21.30;88.60;;;;;;6190697;23;20311;-82
2023/07/11 05:30:43;;;;;;;;;;;21.40;88.60;;;;;;6188723;23;19926;-82
2023/07/11 05:33:09;;;;;;;;;;;21.40;88.50;;;;;;6190979;23;19911;-82
2023/07/11 05:35:41;;;;;;;;;;;21.40;88.40;;;;;;6189631;23;19938;-82
2023/07/11 05:38:06;;;;;;;;;;;21.40;88.10;;;;;;6216363;23;20281;-81
2023/07/11 05:40:32;;;;;;;;;;;21.40;88.10;;;;;;6216897;23;19904;-83
2023/07/11 05:42:58;;;;;;;;;;;21.40;88.10;;;;;;6190623;23;19904;-83
2023/07/11 05:45:23;;;;;;;;;;;21.40;88.10;;;;;;6189966;23;20372;-83
2023/07/11 05:47:49;;;;;;;;;;;21.40;88.10;;;;;;6190770;23;20652;-83
2023/07/11 05:50:14;;;;;;;;;;;21.40;88.20;;;;;;6189702;23;19906;-84
2023/07/11 05:52:40;;;;;;;;;;;21.40;88.20;;;;;;6188928;23;19900;-83
2023/07/11 05:55:05;;;;;;;;;;;21.30;88.30;;;;;;6189689;23;19911;-83
2023/07/11 05:57:31;;;;;;;;;;;21.30;88.40;;;;;;6188332;23;19919;-82
2023/07/11 05:59:56;;;;;;;;;;;21.30;88.40;;;;;;6189452;23;19899;-82
2023/07/11 06:02:21;;;;;;;;;;;21.30;88.40;;;;;;6189185;23;19934;-83
2023/07/11 06:04:47;;;;;;;;;;;21.30;88.40;;;;;;6189253;23;20226;-83
2023/07/11 06:07:12;;;;;;;;;;;21.30;88.40;;;;;;6187771;23;19900;-82
2023/07/11 06:09:38;;;;;;;;;;;21.30;88.40;;;;;;6187400;23;19904;-83
2023/07/11 06:12:03;;;;;;;;;;;21.30;88.40;;;;;;6187685;23;19954;-83
2023/07/11 06:14:29;;;;;;;;;;;21.30;88.40;;;;;;6187607;23;19967;-83
2023/07/11 06:16:54;;;;;;;;;;;21.30;88.40;;;;;;6214635;23;20014;-83
2023/07/11 06:19:20;;;;;;;;;;;21.30;88.40;;;;;;6213977;23;20299;-82
2023/07/11 06:21:45;;;;;;;;;;;21.40;88.40;;;;;;6189591;23;19907;-80
2023/07/11 06:24:10;;;;;;;;;;;21.30;88.30;;;;;;6189495;23;19986;-82
2023/07/11 06:26:36;;;;;;;;;;;21.30;88.30;;;;;;6188846;23;20307;-82
2023/07/11 06:29:01;;;;;;;;;;;21.40;88.30;;;;;;6189539;23;19983;-85
2023/07/11 06:31:27;;;;;;;;;;;21.40;88.30;;;;;;6188907;23;19903;-83
2023/07/11 06:33:52;;;;;;;;;;;21.40;88.80;;;;;;6189236;23;19943;-82
2023/07/11 06:36:18;;;;;;;;;;;21.40;88.20;;;;;;6216463;23;19900;-81
2023/07/11 06:38:43;;;;;;;;;;;21.40;88.20;;;;;;6189985;23;19907;-82
2023/07/11 06:41:08;;;;;;;;;;;21.40;88.10;;;;;;6190237;23;19904;-82
2023/07/11 06:43:34;;;;;;;;;;;21.40;88.10;;;;;;6190196;23;19907;-81
2023/07/11 06:46:00;;;;;;;;;;;21.40;88.10;;;;;;6188226;23;19911;-81
2023/07/11 06:48:26;;;;;;;;;;;21.40;88.00;;;;;;6213357;23;19910;-82
2023/07/11 06:50:53;;;;;;;;;;;21.50;87.80;;;;;;6188544;23;19926;-82
2023/07/11 06:53:19;;;;;;;;;;;21.50;87.60;;;;;;6188838;23;19907;-82
2023/07/11 06:55:45;;;;;;;;;;;21.50;87.60;;;;;;6188769;23;19904;-82
2023/07/11 06:58:11;;;;;;;;;;;21.60;87.50;;;;;;6189074;23;19932;-82
2023/07/11 07:00:37;;;;;;;;;;;21.60;87.30;;;;;;6189765;23;20367;-81
2023/07/11 07:03:02;;;;;;;;;;;21.60;87.80;;;;;;6189683;23;19900;-81
2023/07/11 07:05:27;;;;;;;;;;;21.60;87.20;;;;;;6216185;23;19904;-81
2023/07/11 07:07:53;;;;;;;;;;;21.60;87.20;;;;;;6189402;23;19904;-81
2023/07/11 07:10:18;;;;;;;;;;;21.60;87.10;;;;;;6190250;23;19931;-81
2023/07/11 07:12:44;;;;;;;;;;;21.60;87.10;;;;;;6189290;23;20277;-82
2023/07/11 07:15:09;;;;;;;;;;;21.60;87.00;;;;;;6215960;23;19904;-81
2023/07/11 07:17:35;;;;;;;;;;;21.60;87.00;;;;;;6189892;23;19911;-81
2023/07/11 07:20:00;;;;;;;;;;;21.60;86.90;;;;;;6217067;23;19904;-82
2023/07/11 07:22:25;;;;;;;;;;;21.60;86.80;;;;;;6189427;23;19954;-83
2023/07/11 07:24:51;;;;;;;;;;;21.60;86.80;;;;;;6189471;23;19998;-82
2023/07/11 07:27:17;;;;;;;;;;;21.70;86.70;;;;;;6189698;23;19919;-83
2023/07/11 07:29:42;;;;;;;;;;;21.70;86.80;;;;;;6216783;23;20297;-81
2023/07/11 07:32:08;;;;;;;;;;;21.70;86.70;;;;;;6190042;23;19904;-82
2023/07/11 07:34:33;;;;;;;;;;;21.70;86.80;;;;;;6190184;23;19908;-82
2023/07/11 07:36:59;;;;;;;;;;;21.70;86.80;;;;;;6189282;23;19978;-82
2023/07/11 07:39:24;;;;;;;;;;;21.60;86.80;;;;;;6185726;23;19908;-81
2023/07/11 07:41:50;;;;;;;;;;;21.60;86.90;;;;;;6188402;23;19907;-81
2023/07/11 07:44:15;;;;;;;;;;;21.70;86.90;;;;;;6189274;23;19907;-83
2023/07/11 07:46:41;;;;;;;;;;;21.70;86.90;;;;;;6189482;23;19946;-82
2023/07/11 07:49:06;;;;;;;;;;;21.70;86.90;;;;;;6187765;23;20285;-84
2023/07/11 07:51:32;;;;;;;;;;;21.70;86.90;;;;;;6190012;23;19920;-81
2023/07/11 07:53:58;;;;;;;;;;;21.70;86.90;;;;;;6188217;23;19998;-82
2023/07/11 07:56:23;;;;;;;;;;;21.70;86.90;;;;;;6189504;23;19903;-83
2023/07/11 07:58:50;;;;;;;;;;;21.70;86.80;;;;;;6190059;23;19915;-81
2023/07/11 08:01:16;;;;;;;;;;;21.70;86.80;;;;;;6190538;23;20531;-81
2023/07/11 08:03:42;;;;;;;;;;;21.70;86.80;;;;;;6220250;23;19920;-83
2023/07/11 08:06:08;;;;;;;;;;;21.70;86.70;;;;;;6198695;23;19911;-82
2023/07/11 08:08:34;;;;;;;;;;;21.70;86.60;;;;;;6200841;23;19927;-83
2023/07/11 08:11:01;;;;;;;;;;;21.80;86.80;;;;;;6225881;23;19904;-81
2023/07/11 08:13:26;;;;;;;;;;;21.80;86.80;;;;;;6198991;23;19907;-83
2023/07/11 08:15:52;;;;;;;;;;;21.80;86.60;;;;;;6198848;23;19934;-82
2023/07/11 08:18:17;;;;;;;;;;;21.80;86.70;;;;;;6197995;23;19915;-83
2023/07/11 08:20:43;;;;;;;;;;;21.80;86.60;;;;;;6198659;23;19911;-81
2023/07/11 08:23:08;;;;;;;;;;;21.80;86.60;;;;;;6196929;23;19916;-81
2023/07/11 08:25:34;;;;;;;;;;;21.80;86.60;;;;;;6197790;23;20318;-83
2023/07/11 08:27:59;;;;;;;;;;;21.80;86.60;;;;;;6200174;23;19904;-84
2023/07/11 08:30:25;;;;;;;;;;;21.80;86.50;;;;;;6199884;23;19911;-83
2023/07/11 08:32:50;;;;;;;;;;;21.90;86.60;;;;;;6199443;23;19952;-83
2023/07/11 08:35:16;;;;;;;;;;;21.90;86.50;;;;;;6197834;23;19903;-86
2023/07/11 08:37:41;;;;;;;;;;;21.90;86.30;;;;;;6197460;23;20385;-82
2023/07/11 08:40:11;;;;;;;;;;;22.10;86.30;;;;;;6196468;23;19904;-82
2023/07/11 08:42:41;;;;;;;;;;;22.00;86.10;;;;;;6196693;23;19907;-83
2023/07/11 08:45:22;;;;;;;;;;;22.00;85.90;;;;;;6196778;23;19906;-81
2023/07/11 08:47:53;;;;;;;;;;;22.00;85.80;;;;;;6222409;23;19954;-82
2023/07/11 08:50:21;;;;;;;;;;;22.10;85.70;;;;;;6222434;23;19931;-83
2023/07/11 08:52:50;;;;;;;;;;;22.20;85.70;;;;;;6194587;23;19903;-81
2023/07/11 08:55:24;;;;;;;;;;;22.10;85.60;;;;;;6195212;23;19904;-83
2023/07/11 08:58:01;;;;;;;;;;;22.20;85.60;;;;;;6222108;23;19927;-82
2023/07/11 09:00:28;;;;;;;;;;;22.20;85.60;;;;;;6221599;23;19900;-82
2023/07/11 09:03:12;;;;;;;;;;;22.30;85.60;;;;;;6194280;23;20348;-82
2023/07/11 09:05:43;;;;;;;;;;;22.20;85.50;;;;;;6221813;23;19931;-84
2023/07/11 09:08:19;;;;;;;;;;;22.20;86.00;;;;;;6194353;23;20348;-81
2023/07/11 09:10:50;;;;;;;;;;;22.20;85.60;;;;;;6194508;23;20349;-82
2023/07/11 09:13:16;;;;;;;;;;;22.20;85.80;;;;;;6193514;23;19911;-81
2023/07/11 09:16:11;;;;;;;;;;;22.20;85.80;;;;;;6194563;23;20414;-82
2023/07/11 09:18:55;;;;;;;;;;;22.20;85.80;;;;;;6163576;23;20353;-83
2023/07/11 09:21:20;;;;;;;;;;;22.10;85.90;;;;;;6194091;23;19900;-84
2023/07/11 09:23:49;;;;;;;;;;;22.20;85.90;;;;;;6193998;23;20304;-81
2023/07/11 09:26:23;;;;;;;;;;;22.20;85.80;;;;;;6221125;23;19927;-80
2023/07/11 09:28:49;;;;;;;;;;;22.20;86.00;;;;;;6193331;23;19912;-82
2023/07/11 09:31:17;;;;;;;;;;;22.20;85.90;;;;;;6194627;23;19965;-82
2023/07/11 09:33:47;;;;;;;;;;;22.20;86.00;;;;;;6221048;23;19907;-80
2023/07/11 09:36:24;;;;;;;;;;;22.20;86.00;;;;;;6194063;23;20341;-83
2023/07/11 09:38:53;;;;;;;;;;;22.20;86.00;;;;;;6193206;23;19903;-81
2023/07/11 09:41:29;;;;;;;;;;;22.20;85.90;;;;;;6193554;23;19900;-81
2023/07/11 09:43:54;;;;;;;;;;;22.20;85.90;;;;;;6191679;23;20105;-82
2023/07/11 09:46:24;;;;;;;;;;;22.30;86.00;;;;;;6190801;23;20390;-83
2023/07/11 09:48:55;;;;;;;;;;;22.30;86.00;;;;;;6189774;23;19900;-85
2023/07/11 09:51:26;;;;;;;;;;;22.30;85.80;;;;;;6194824;23;20409;-81
2023/07/11 09:53:55;;;;;;;;;;;22.30;85.80;;;;;;6194396;23;19908;-83
2023/07/11 09:56:22;;;;;;;;;;;22.30;85.80;;;;;;6192948;23;20350;-80
2023/07/11 09:58:57;;;;;;;;;;;22.30;85.80;;;;;;6193061;23;19964;-82
2023/07/11 10:01:25;;;;;;;;;;;22.30;85.70;;;;;;6193766;23;19923;-82
2023/07/11 10:03:52;;;;;;;;;;;22.30;85.60;;;;;;6192948;23;19915;-85
2023/07/11 10:06:26;;;;;;;;;;;22.30;85.70;;;;;;6191452;23;19903;-83
2023/07/11 10:08:51;;;;;;;;;;;22.30;85.70;;;;;;6193766;23;19935;-79
2023/07/11 10:11:17;;;;;;;;;;;22.30;85.70;;;;;;6193505;23;19911;-78
2023/07/11 10:13:44;;;;;;;;;;;22.30;85.70;;;;;;6220845;23;20289;-78
2023/07/11 10:16:14;;;;;;;;;;;22.30;85.60;;;;;;6221977;23;19900;-79
2023/07/11 10:18:42;;;;;;;;;;;22.40;85.60;;;;;;6221660;23;20315;-80
2023/07/11 10:21:13;;;;;;;;;;;22.40;85.40;;;;;;6193756;23;19923;-79
2023/07/11 10:23:41;;;;;;;;;;;22.40;85.30;;;;;;6219707;23;19900;-76
2023/07/11 10:26:19;;;;;;;;;;;22.50;85.20;;;;;;6194154;23;19899;-79
2023/07/11 10:28:48;;;;;;;;;;;22.50;85.10;;;;;;6220921;23;19900;-78
2023/07/11 10:31:16;;;;;;;;;;;22.50;85.10;;;;;;6221608;23;19900;-77
2023/07/11 10:33:47;;;;;;;;;;;22.50;85.00;;;;;;6193262;23;20353;-78
2023/07/11 10:36:19;;;;;;;;;;;22.50;85.00;;;;;;6192693;23;19907;-79
2023/07/11 10:39:01;;;;;;;;;;;22.50;85.00;;;;;;6219610;23;19903;-79
2023/07/11 10:41:43;;;;;;;;;;;22.50;84.90;;;;;;6219164;23;19899;-80
2023/07/11 10:44:15;;;;;;;;;;;22.50;84.90;;;;;;6192529;23;19900;-80
2023/07/11 10:46:45;;;;;;;;;;;22.50;85.10;;;;;;6192045;23;19900;-80
2023/07/11 10:49:20;;;;;;;;;;;22.40;85.10;;;;;;6219246;23;19904;-80
2023/07/11 10:51:49;;;;;;;;;;;22.40;85.20;;;;;;6217936;23;20273;-78
2023/07/11 10:54:22;;;;;;;;;;;22.40;85.30;;;;;;6218682;23;19899;-81
2023/07/11 10:56:50;;;;;;;;;;;22.40;85.60;;;;;;6219446;23;19900;-79
2023/07/11 10:59:18;;;;;;;;;;;22.30;85.60;;;;;;6219004;23;19923;-80
2023/07/11 11:01:56;;;;;;;;;;;22.40;85.70;;;;;;6192289;23;19903;-79
2023/07/11 11:04:25;;;;;;;;;;;22.30;85.50;;;;;;6190965;23;19927;-79
2023/07/11 11:06:51;;;;;;;;;;;22.40;85.60;;;;;;6193151;23;19900;-79
2023/07/11 11:09:35;;;;;;;;;;;22.40;85.60;;;;;;6219465;23;19899;-79
2023/07/11 11:12:10;;;;;;;;;;;22.30;85.60;;;;;;6192921;23;20285;-79
2023/07/11 11:14:35;;;;;;;;;;;22.30;85.60;;;;;;6192811;23;19900;-79
2023/07/11 11:17:14;;;;;;;;;;;22.30;85.60;;;;;;6192762;23;19907;-79
2023/07/11 11:19:43;;;;;;;;;;;22.40;85.70;;;;;;6207261;23;19911;-81
2023/07/11 11:22:14;;;;;;;;;;;22.40;85.70;;;;;;6206596;23;19915;-80
2023/07/11 11:24:49;;;;;;;;;;;22.40;85.70;;;;;;6207183;23;19904;-79
2023/07/11 11:27:33;;;;;;;;;;;22.30;85.70;;;;;;6203717;23;19899;-84
2023/07/11 11:30:03;;;;;;;;;;;22.30;85.70;;;;;;6230059;23;20312;-84
2023/07/11 11:32:38;;;;;;;;;;;22.30;85.70;;;;;;6202341;23;19907;-85
2023/07/11 11:35:22;;;;;;;;;;;22.40;85.70;;;;;;6202873;23;19911;-83
2023/07/11 11:37:54;;;;;;;;;;;22.40;85.70;;;;;;6203655;23;19904;-84
2023/07/11 11:40:21;;;;;;;;;;;22.40;85.80;;;;;;6232743;23;19904;-87
2023/07/11 11:42:50;;;;;;;;;;;22.40;85.80;;;;;;6204103;23;20303;-82
2023/07/11 11:45:18;;;;;;;;;;;22.40;85.70;;;;;;6204895;23;19900;-82
2023/07/11 11:47:44;;;;;;;;;;;22.40;85.60;;;;;;6227035;23;19947;-82
2023/07/11 11:50:17;;;;;;;;;;;22.40;85.50;;;;;;6203059;23;19904;-85
2023/07/11 11:52:44;;;;;;;;;;;22.40;85.40;;;;;;6201642;23;19899;-82
2023/07/11 11:55:32;;;;;;;;;;;22.40;85.90;;;;;;6229251;23;19907;-82
2023/07/11 11:57:57;;;;;;;;;;;22.40;85.30;;;;;;6200472;23;19904;-82
2023/07/11 12:00:32;;;;;;;;;;;22.40;85.40;;;;;;6201261;23;19950;-81
2023/07/11 12:02:57;;;;;;;;;;;22.40;85.30;;;;;;6200119;23;20315;-82
2023/07/11 12:05:23;;;;;;;;;;;22.40;85.30;;;;;;6200953;23;19907;-82
2023/07/11 12:08:07;;;;;;;;;;;22.40;85.30;;;;;;6227507;23;20242;-84
2023/07/11 12:10:34;;;;;;;;;;;22.40;85.30;;;;;;6226057;23;19900;-83
2023/07/11 12:13:17;;;;;;;;;;;22.50;85.40;;;;;;6226737;23;19900;-83
2023/07/11 12:15:45;;;;;;;;;;;22.40;85.40;;;;;;6227490;23;20319;-81
2023/07/11 12:18:25;;;;;;;;;;;22.40;85.40;;;;;;6197673;23;19914;-81
2023/07/11 12:21:16;;;;;;;;;;;22.40;85.60;;;;;;6195588;23;19951;-82
2023/07/11 12:23:49;;;;;;;;;;;22.30;85.70;;;;;;6196137;23;19926;-82
2023/07/11 12:26:22;;;;;;;;;;;22.40;85.90;;;;;;6223847;23;19927;-80
2023/07/11 12:28:48;;;;;;;;;;;22.30;85.90;;;;;;6196505;23;19954;-81
2023/07/11 12:31:24;;;;;;;;;;;22.30;85.90;;;;;;6195602;23;19904;-83
2023/07/11 12:34:03;;;;;;;;;;;22.30;86.00;;;;;;6222784;23;19918;-80
2023/07/11 12:36:47;;;;;;;;;;;22.30;86.10;;;;;;6194584;23;19900;-82
2023/07/11 12:39:20;;;;;;;;;;;22.30;86.20;;;;;;6195198;23;19904;-80
2023/07/11 12:41:56;;;;;;;;;;;22.30;86.20;;;;;;6194678;23;20349;-84
2023/07/11 12:44:21;;;;;;;;;;;22.30;86.20;;;;;;6194747;23;19911;-80
2023/07/11 12:46:49;;;;;;;;;;;22.20;86.30;;;;;;6221231;23;19900;-83
2023/07/11 12:49:25;;;;;;;;;;;22.30;86.30;;;;;;6221500;23;19906;-80
2023/07/11 12:51:51;;;;;;;;;;;22.20;86.30;;;;;;6195219;23;19900;-81
2023/07/11 12:54:20;;;;;;;;;;;22.20;86.40;;;;;;6195767;23;20215;-81
2023/07/11 12:56:50;;;;;;;;;;;22.20;86.40;;;;;;6195508;23;19899;-82
2023/07/11 12:59:19;;;;;;;;;;;22.20;86.50;;;;;;6196165;23;20318;-78
2023/07/11 13:01:45;;;;;;;;;;;22.20;86.50;;;;;;6220707;23;19900;-82
2023/07/11 13:04:19;;;;;;;;;;;22.20;86.60;;;;;;6195012;23;20440;-82
2023/07/11 13:06:48;;;;;;;;;;;22.20;86.60;;;;;;6222124;23;19900;-82
2023/07/11 13:09:13;;;;;;;;;;;22.20;86.50;;;;;;6193408;23;20038;-80
2023/07/11 13:11:38;;;;;;;;;;;22.20;86.60;;;;;;6220387;23;20326;-80
2023/07/11 13:14:08;;;;;;;;;;;22.20;86.50;;;;;;6193133;23;19900;-81
2023/07/11 13:16:36;;;;;;;;;;;22.20;86.50;;;;;;6220645;23;19900;-77
2023/07/11 13:19:02;;;;;;;;;;;22.20;86.40;;;;;;6188375;23;19919;-80
2023/07/11 13:21:28;;;;;;;;;;;22.20;86.30;;;;;;6193772;23;19899;-81
2023/07/11 13:23:55;;;;;;;;;;;22.20;86.30;;;;;;6191969;23;19978;-81
2023/07/11 13:26:22;;;;;;;;;;;22.20;86.10;;;;;;6189882;23;19903;-81
2023/07/11 13:28:57;;;;;;;;;;;22.30;86.00;;;;;;6193764;23;19900;-81
2023/07/11 13:31:29;;;;;;;;;;;22.30;86.00;;;;;;6218600;23;19979;-79
2023/07/11 13:33:59;;;;;;;;;;;22.30;85.90;;;;;;6192827;23;19950;-80
2023/07/11 13:36:26;;;;;;;;;;;22.30;85.90;;;;;;6191363;23;20250;-81
2023/07/11 13:38:52;;;;;;;;;;;22.30;85.90;;;;;;6191302;23;19908;-81
2023/07/11 13:41:19;;;;;;;;;;;22.30;85.90;;;;;;6190911;23;19907;-81
2023/07/11 13:43:48;;;;;;;;;;;22.30;85.90;;;;;;6190618;23;19946;-81
2023/07/11 13:46:15;;;;;;;;;;;22.30;86.00;;;;;;6218228;23;19915;-81
2023/07/11 13:48:44;;;;;;;;;;;22.30;86.00;;;;;;6191101;23;19899;-81
2023/07/11 13:51:30;;;;;;;;;;;22.20;86.10;;;;;;6191062;23;19900;-81
2023/07/11 13:54:04;;;;;;;;;;;22.20;86.30;;;;;;6165131;23;19983;-83
2023/07/11 13:56:29;;;;;;;;;;;22.20;86.40;;;;;;6190911;23;19906;-80
2023/07/11 13:58:55;;;;;;;;;;;22.20;86.50;;;;;;6190693;23;19939;-81
2023/07/11 14:01:21;;;;;;;;;;;22.10;86.50;;;;;;6218090;23;19950;-82
2023/07/11 14:03:47;;;;;;;;;;;22.10;86.60;;;;;;6217883;23;19939;-81
2023/07/11 14:06:13;;;;;;;;;;;22.10;86.60;;;;;;6218025;23;19907;-82
2023/07/11 14:08:40;;;;;;;;;;;22.10;86.70;;;;;;6190932;23;20345;-79
2023/07/11 14:11:12;;;;;;;;;;;22.10;86.70;;;;;;6219153;23;19900;-81
2023/07/11 14:13:37;;;;;;;;;;;22.10;86.70;;;;;;6190599;23;19907;-81
2023/07/11 14:16:03;;;;;;;;;;;22.10;86.80;;;;;;6190283;23;19900;-82
2023/07/11 14:18:28;;;;;;;;;;;22.10;86.80;;;;;;6190187;23;19904;-82
2023/07/11 14:20:54;;;;;;;;;;;22.10;86.70;;;;;;6190452;23;19899;-81